Crooked Creek Research Lab Weather observations

Data are for 10 minute period ending at time listed.
 Day   Time    Ave.   Ave.  Ave.  Vector   Max.   Stn.    Total    Solar   Ave.   Snow 
  of    of     Air    Rel.  Wind   Wind    Wind   Baro.  Precip.   Rad.    Soil   Depth
Year   Day     Temp.  Hum.  Speed  Dir.    Gust   Pres.                    Temp.       
2016   (PST)    F      %     mph   deg.    mph     mb.     in.     W/m2     F      in. 
---------------------------------------------------------------------------------------  
 121    5:10   20.6    92    8.9    54     22.4   684.5    0.00       2    999.0    -1.0
 121    5:20   20.6    94   11.1    56     32.2   684.1    0.00       4    999.0    -1.0
 121    5:30   20.6    95   10.3    56     24.8   684.4    0.00       9    999.0    -1.1
 121    5:40   20.7    95   11.2    58     28.4   684.3    0.00      14    999.0    -1.2
 121    5:50   20.8    96    9.7    69     21.7   683.9    0.00      26    999.0    -1.1
 121    6:00   21.1    94   10.7    66     28.4   684.8    0.00      39    999.0    -1.2
 121    6:10   21.5    93   10.2    48     31.0   685.0    0.00      44    999.0    -1.4
 121    6:20   21.5    93   10.1    60     22.3   685.3    0.00      33    999.0    -1.4
 121    6:30   21.2    96   12.2    54     25.2   685.5    0.00      35    999.0    -1.3
 121    6:40   21.3    97   11.0    55     23.5   685.2    0.00      55    999.0    -1.5
 121    6:50   21.6    96   12.4    51     24.4   685.7    0.00      95    999.0    -1.3
 121    7:00   21.9    95   10.2    51     20.4   685.0    0.00     123    999.0    -1.2
 121    7:10   22.3    93    8.6    64     20.2   685.6    0.00     156    999.0    -0.8
 121    7:20   22.7    93    7.9    59     18.3   685.6    0.00     138    999.0    -0.8
 121    7:30   22.9    92    7.7    57     18.3   685.5    0.00     203    999.0    -0.7
 121    7:40   23.8    91    8.2    58     20.8   686.3    0.00     360    999.0    -0.4
 121    7:50   24.4    89    6.0    55     17.7   685.8    0.00     292    999.0    -0.4
 121    8:00   24.3    88    7.0    56     14.0   685.6    0.00     204    999.0    -0.5
 121    8:10   23.9    89    6.9    58     17.2   685.7    0.00     139    999.0    -0.5
 121    8:20   23.5    91    7.1    55     15.8   686.3    0.00     135    999.0    -0.4
 121    8:30   22.9    95    6.9    48     19.3   686.3    0.00     105    999.0    -0.5
 121    8:40   22.6    98    5.7    53     16.2   686.0    0.00     127    999.0    -0.5
 121    8:50   23.1    96    8.4    52     18.4   685.9    0.00     203    999.0    -0.4
 121    9:00   24.4    91    5.1    64     13.0   686.0    0.00     303    999.0    -0.3
 121    9:10   25.7    86    6.8    47     14.5   686.0    0.00     350    999.0    -0.7
 121    9:20   26.8    83    4.5    52     14.0   686.0    0.00     597    999.0    -1.0
 121    9:30   29.3    76    3.4    47     12.3   686.2    0.00     742    999.0    -1.1
 121    9:40   28.8    76    7.2    46     17.8   686.4    0.05     388    999.0    -1.2
 121    9:50   26.7    83    6.9    54     16.7   686.4    0.00     350    999.0    -0.8
 121   10:00   26.6    84    6.1    54     13.5   686.6    0.00     338    999.0    -0.8
 121   10:10   26.6    85    4.5    53      9.3   686.6    0.00     296    999.0    -0.8
 121   10:20   26.4    86    5.6    52     11.4   687.3    0.00     286    999.0    -0.9
 121   10:30   26.2    87    4.4    48     11.9   687.3    0.00     295    999.0    -1.0
 121   10:40   26.5    87    5.2    57     10.6   687.1    0.00     424    999.0    -0.9
 121   10:50   27.0    85    5.8    54     12.0   686.9    0.00     399    999.0    -0.9
 121   11:00   27.5    84    6.2    50     12.5   687.1    0.01     595    999.0    -0.9
 121   11:10   27.9    82    7.3    54     15.3   687.3    0.00     477    999.0    -0.9
 121   11:20   27.4    83    7.5    43     14.9   687.3    0.00     503    999.0    -0.9
 121   11:30   28.0    82    8.3    46     17.4   687.4    0.00     682    999.0    -0.9
 121   11:40   28.8    82    7.6    45     15.7   687.3    0.00     824    999.0    -0.7
 121   11:50   29.2    81    7.2    39     14.5   687.6    0.00     687    999.0    -0.7
 121   12:00   29.2    81    7.8    36     17.0   687.4    0.00     770    999.0    -0.7
 121   12:10   29.1    82    7.9    39     21.5   687.4    0.00     713    999.0    -0.7
 121   12:20   29.3    81    9.2    47     18.0   687.3    0.00     786    999.0    -0.7
 121   12:30   29.9    78    9.2    47     17.6   687.1    0.00     670    999.0    -0.7
 121   12:40   30.1    78   10.4    42     21.7   687.4    0.00     961    999.0    -0.6
 121   12:50   30.1    79   10.2    43     18.9   687.2    0.00     846    999.0    -0.7
 121   13:00   29.6    81    7.1    42     16.1   687.7    0.00     532    999.0    -0.7
 121   13:10   29.8    81    6.0    42     19.6   687.9    0.00     480    999.0    -0.7
 121   13:20   29.3    83    6.2    46     17.1   687.9    0.00     379    999.0    -0.7
 121   13:30   29.2    84    7.9    48     14.8   687.5    0.00     465    999.0    -0.5
 121   13:40   29.0    86    6.6    41     14.8   687.7    0.00     344    999.0    -0.6
 121   13:50   29.1    84    6.1    45     12.5   688.0    0.00     275    999.0    -0.6
 121   14:00   28.4    86    7.7    47     14.2   687.7    0.00     279    999.0    -0.6
 121   14:10   28.6    83    9.7    42     18.9   688.2    0.00     216    999.0    -0.5
 121   14:20   28.5    84    8.5    42     17.1   687.8    0.00     295    999.0    -0.6
 121   14:30   29.3    83    9.3    46     20.1   687.7    0.00     453    999.0    -0.6
 121   14:40   28.9    84    9.5    40     19.1   687.4    0.00     197    999.0    -0.6
 121   14:50   28.4    87    8.0    47     16.4   687.3    0.00     263    999.0    -0.6
 121   15:00   28.8    85    8.2    43     19.6   687.7    0.00     316    999.0    -0.6
 121   15:10   29.6    81    9.7    46     20.8   687.7    0.00     455    999.0    -0.6
 121   15:20   29.7    80   10.2    49     18.5   687.4    0.00     365    999.0    -0.6
 121   15:30   29.5    80   10.9    45     18.3   687.6    0.00     333    999.0    -0.6
 121   15:40   29.5    80    9.5    55     17.5   687.6    0.00     220    999.0    -0.6
 121   15:50   29.1    81    8.7    46     21.2   688.0    0.00     183    999.0    -0.6
 121   16:00   28.9    82    7.7    52     16.7   688.0    0.00     132    999.0    -0.6
 121   16:10   28.8    82    7.3    41     14.8   687.9    0.00     145    999.0    -0.6
 121   16:20   28.9    80    7.8    47     19.1   687.7    0.00     150    999.0    -0.6
 121   16:30   29.2    78    7.5    54     14.4   687.9    0.00     132    999.0    -0.6
 121   16:40   29.3    79    6.5    47     16.7   687.8    0.00     109    999.0    -0.6
 121   16:50   29.1    80    6.6    52     12.7   688.3    0.00      93    999.0    -0.6
 121   17:00   29.1    81    6.1    49     14.6   688.1    0.00     107    999.0    -0.6
 121   17:10   29.2    79    4.0    59      9.9   688.1    0.00      73    999.0    -0.6
 121   17:20   29.0    82    4.3    56      9.6   688.2    0.00      39    999.0    -0.6
 121   17:30   28.6    83    5.6    43     12.0   688.4    0.00      30    999.0    -0.6
 121   17:40   28.3    83    4.9    53     11.2   688.6    0.00      24    999.0    -0.6
 121   17:50   28.2    85    6.3    44     12.3   688.5    0.00      30    999.0    -0.6
 121   18:00   28.0    86    6.1    52     11.6   688.8    0.00      23    999.0    -0.6
 121   18:10   27.9    85    6.4    58     12.8   688.5    0.00      13    999.0    -0.6
 121   18:20   27.7    86    7.0    41     12.7   688.5    0.00       8    999.0    -0.6
 121   18:30   27.6    86    6.2    35     15.1   688.9    0.00       4    999.0    -0.6
 121   18:40   27.5    85    7.6    42     17.2   688.5    0.00       1    999.0    -0.6
 121   18:50   27.5    84    6.0    40     11.9   688.8    0.00       0    999.0    -0.6
 121   19:00   27.5    85    6.3    41     14.6   688.9    0.00       0    999.0    -0.6
 121   19:10   27.4    85    7.5    44     12.9   689.0    0.00       0    999.0    -0.6
 121   19:20   27.5    86    7.3    51     14.6   688.9    0.00       0    999.0    -0.6
 121   19:30   27.5    85    6.4    43     12.6   689.0    0.00       0    999.0    -0.6
 121   19:40   27.5    85    7.3    43     15.5   689.2    0.00       0    999.0    -0.6
 121   19:50   27.4    86    8.0    42     15.8   689.1    0.00       0    999.0    -0.6
 121   20:00   27.4    87    7.3    41     20.2   688.9    0.00       0    999.0    -0.6
 121   20:10   27.4    89    7.9    41     17.1   689.2    0.00       0    999.0    -0.6
 121   20:20   27.3    90    8.6    42     18.1   688.9    0.00       0    999.0    -0.6
 121   20:30   27.3    91    8.1    48     16.7   689.6    0.00       0    999.0    -0.6
 121   20:40   27.2    92    6.4    51     13.8   690.0    0.00       0    999.0    -0.6
 121   20:50   27.2    93    7.1    43     14.6   689.9    0.00       0    999.0    -0.6
 121   21:00   27.1    94    8.3    47     17.2   689.6    0.00       0    999.0    -0.6
 121   21:10   27.2    94    6.5    45     12.8   689.5    0.00       0    999.0    -0.6
 121   21:20   27.2    94    6.8    44     13.0   689.2    0.00       0    999.0    -0.6
 121   21:30   27.1    95    6.8    44     16.2   689.7    0.00       0    999.0    -0.6
 121   21:40   27.1    96    7.2    52     19.1   689.7    0.00       0    999.0    -0.7
 121   21:50   27.1    95    5.2    43     12.4   689.5    0.00       0    999.0    -0.6
 121   22:00   27.2    93    6.2    42     13.0   689.5    0.00       0    999.0    -0.6
 121   22:10   27.2    94    6.2    43     11.7   689.3    0.00       0    999.0    -0.6
 121   22:20   27.1    95    5.9    44     13.7   689.5    0.00       0    999.0    -0.7
 121   22:30   27.0    96    6.1    48     11.2   689.5    0.00       0    999.0    -0.7
 121   22:40   26.9    97    6.3    48     11.8   689.5    0.00       0    999.0    -0.9
 121   22:50   26.7    98    5.4    45     13.1   689.5    0.00       0    999.0    -1.2
 121   23:00   26.6    97    5.1    56     11.9   690.0    0.00       0    999.0    -1.2
 121   23:10   26.6    97    4.3    49     10.7   689.5    0.00       0    999.0    -1.2
 121   23:20   26.5    97    4.9    48     12.1   689.8    0.00       0    999.0    -1.2
 121   23:30   26.4    97    5.7    40     11.5   689.5    0.00       0    999.0    -1.1
 121   23:40   26.3    98    4.1    40     10.2   689.1    0.00       0    999.0    -1.1
 121   23:50   26.3    98    3.8    45      8.0   688.9    0.00       0    999.0    -1.1
 122    0:00   26.3    98    4.4    38      7.2   689.2    0.00       0    999.0    -1.0
 122    0:10   26.3    97    4.4    42      9.7   688.8    0.00       0    999.0    -1.0
 122    0:20   26.3    97    3.9    42      7.8   688.6    0.00       0    999.0    -1.1
 122    0:30   26.3    97    3.6    54      6.6   688.6    0.00       0    999.0    -1.1
 122    0:40   26.3    97    5.5    42     12.8   689.2    0.00       0    999.0    -1.2
 122    0:50   26.2    97    5.3    39     10.6   688.3    0.00       0    999.0    -1.1
 122    1:00   26.1    97    6.0    40     12.6   689.0    0.00       0    999.0    -1.0
 122    1:10   26.0    97    4.0    39      8.2   688.7    0.00       0    999.0    -1.0
 122    1:20   26.1    96    4.8    39      9.0   688.6    0.00       0    999.0    -1.1
 122    1:30   26.1    96    3.1    49      6.4   688.6    0.00       0    999.0    -1.1
 122    1:40   26.0    96    4.5    48      7.9   688.2    0.00       0    999.0    -1.1
 122    1:50   25.9    96    4.2    38      9.5   688.2    0.00       0    999.0    -1.1
 122    2:00   25.8    95    4.2    36      8.4   688.2    0.00       0    999.0    -1.1
 122    2:10   25.7    94    4.0    46      6.9   688.5    0.00       0    999.0    -1.0
 122    2:20   25.6    94    4.3    40      7.6   688.1    0.00       0    999.0    -1.0
 122    2:30   25.8    93    3.9    39      8.3   688.6    0.00       0    999.0    -1.0
 122    2:40   25.8    95    3.3    34      6.1   688.1    0.00       0    999.0    -1.0
 122    2:50   25.6    95    1.3    24      3.7   688.2    0.00       0    999.0    -1.0
 122    3:00   24.8    95    2.3   324      4.4   688.2    0.00       0    999.0    -1.0
 122    3:10   23.7    96    2.4   298      3.5   688.7    0.00       0    999.0    -1.0
 122    3:20   23.0    95    4.1   300      6.9   688.3    0.00       0    999.0    -0.9
 122    3:30   22.8    92    2.3   309      6.4   687.8    0.00       0    999.0    -0.9
 122    3:40   22.4    93    1.4   192      3.4   687.5    0.00       0    999.0    -0.9
 122    3:50   22.5    87    1.4   286      4.8   688.0    0.00       0    999.0    -0.8
 122    4:00   21.4    88    2.2   295      5.2   687.5    0.00       0    999.0    -0.9
 122    4:10   20.2    90    1.3   184      4.7   687.5    0.00       0    999.0    -0.9
 122    4:20   19.8    90    2.8   195      5.8   687.5    0.00       0    999.0    -0.8
 122    4:30   19.1    91    1.5   169      4.0   687.3    0.00       0    999.0    -0.7
 122    4:40   18.7    90    0.4   144      1.3   687.5    0.00       0    999.0    -0.9
 122    4:50   17.5    90    2.2   200      4.7   687.6    0.00       1    999.0    -0.9
 122    5:00   16.5    91    0.7   143      2.3   688.3    0.00       4    999.0    -0.8

Return to Crooked Creek Research Lab graphs page.


Western Regional Climate Center,wrcc@dri.edu